createdAt,value
2022-10-20T00:00:21.680Z,10.13
2022-10-20T00:02:48.549Z,9.15
2022-10-20T00:05:15.426Z,10.32
2022-10-20T00:07:42.119Z,9.73
2022-10-20T00:10:09.290Z,9.75
2022-10-20T00:12:36.883Z,10.27
2022-10-20T00:15:04.131Z,9.45
2022-10-20T00:17:31.850Z,10.38
2022-10-20T00:19:58.591Z,9.60
2022-10-20T00:22:25.324Z,10.50
2022-10-20T00:24:52.382Z,10.00
2022-10-20T00:27:19.040Z,10.40
2022-10-20T00:29:48.085Z,9.70
2022-10-20T00:32:15.112Z,9.80
2022-10-20T00:34:41.806Z,9.88
2022-10-20T00:37:08.505Z,10.35
2022-10-20T00:39:35.174Z,9.68
2022-10-20T00:42:05.498Z,9.50
2022-10-20T00:44:50.057Z,9.95
2022-10-20T00:47:38.855Z,9.77
2022-10-20T00:50:37.636Z,9.43
2022-10-20T00:53:05.501Z,10.23
2022-10-20T00:55:36.020Z,10.38
2022-10-20T00:58:04.459Z,9.90
2022-10-20T01:00:31.878Z,8.90
2022-10-20T01:03:01.640Z,9.00
2022-10-20T01:05:29.055Z,9.05
2022-10-20T01:07:56.231Z,9.70
2022-10-20T01:10:27.001Z,9.10
2022-10-20T01:13:19.833Z,10.00
2022-10-20T01:16:04.355Z,9.93
2022-10-20T01:18:52.133Z,10.57
2022-10-20T01:21:25.395Z,10.02
2022-10-20T01:24:17.585Z,9.57
2022-10-20T01:27:26.290Z,9.35
2022-10-20T01:30:05.442Z,10.00
2022-10-20T01:32:49.620Z,9.27
2022-10-20T01:35:19.023Z,10.10
2022-10-20T01:37:56.562Z,10.40
2022-10-20T01:40:36.529Z,10.15
2022-10-20T01:43:08.170Z,9.55
2022-10-20T01:45:38.739Z,9.38
2022-10-20T01:48:07.781Z,10.07
2022-10-20T01:50:37.177Z,10.30
2022-10-20T01:53:04.304Z,9.80
2022-10-20T01:55:32.699Z,9.27
2022-10-20T01:58:24.532Z,9.55
2022-10-20T02:00:52.896Z,11.02
2022-10-20T02:03:45.168Z,10.70
2022-10-20T02:06:24.742Z,9.82
2022-10-20T02:08:55.698Z,10.38
2022-10-20T02:11:56.019Z,10.57
2022-10-20T02:14:23.856Z,9.88
2022-10-20T02:16:56.753Z,10.10
2022-10-20T02:19:28.637Z,10.07
2022-10-20T02:21:57.467Z,10.27
2022-10-20T02:24:29.068Z,10.50
2022-10-20T02:26:59.054Z,9.55
2022-10-20T02:29:30.842Z,10.82
2022-10-20T02:31:59.444Z,11.00
2022-10-20T02:34:27.160Z,10.30
2022-10-20T02:36:59.138Z,11.02
2022-10-20T02:39:26.860Z,10.48
2022-10-20T02:41:55.863Z,10.65
2022-10-20T02:44:23.054Z,10.82
2022-10-20T02:46:49.900Z,9.45
2022-10-20T02:49:16.777Z,11.55
2022-10-20T02:51:43.473Z,10.00
2022-10-20T02:54:10.218Z,11.38
2022-10-20T02:56:36.872Z,10.68
2022-10-20T02:59:03.582Z,11.23
2022-10-20T03:01:30.317Z,10.70
2022-10-20T03:03:59.810Z,10.07
2022-10-20T03:06:27.210Z,11.25
2022-10-20T03:08:53.912Z,11.10
2022-10-20T03:11:21.906Z,10.93
2022-10-20T03:13:49.662Z,10.45
2022-10-20T03:16:16.417Z,10.70
2022-10-20T03:18:43.150Z,10.97
2022-10-20T03:21:09.938Z,10.30
2022-10-20T03:23:36.614Z,10.57
2022-10-20T03:26:04.769Z,10.52
2022-10-20T03:28:31.636Z,10.65
2022-10-20T03:30:59.040Z,10.40
2022-10-20T03:33:26.339Z,10.77
2022-10-20T03:35:53.400Z,11.02
2022-10-20T03:38:20.371Z,10.07
2022-10-20T03:40:48.931Z,10.52
2022-10-20T03:43:15.702Z,11.10
2022-10-20T03:45:43.517Z,10.43
2022-10-20T03:48:11.870Z,10.57
2022-10-20T03:50:40.454Z,9.70
2022-10-20T03:53:07.564Z,10.05
2022-10-20T03:55:34.424Z,10.60
2022-10-20T03:58:01.120Z,9.32
2022-10-20T04:00:27.788Z,10.40
2022-10-20T04:02:54.787Z,10.25
2022-10-20T04:05:21.673Z,10.43
2022-10-20T04:07:48.909Z,10.10
2022-10-20T04:10:17.098Z,10.00
2022-10-20T04:12:43.834Z,9.32
2022-10-20T04:15:10.984Z,10.40
2022-10-20T04:20:24.512Z,9.90
2022-10-20T04:22:51.344Z,10.57
2022-10-20T04:25:18.378Z,9.77
2022-10-20T04:27:45.132Z,10.00
2022-10-20T04:30:12.155Z,9.52
2022-10-20T04:32:39.186Z,9.15
2022-10-20T04:35:06.346Z,9.57
2022-10-20T04:37:33.408Z,9.18
2022-10-20T04:40:01.314Z,9.60
2022-10-20T04:42:28.386Z,9.23
2022-10-20T04:44:55.121Z,9.15
2022-10-20T04:47:22.066Z,9.27
2022-10-20T04:49:48.790Z,10.25
2022-10-20T04:52:15.469Z,9.35
2022-10-20T04:54:42.140Z,9.27
2022-10-20T04:57:10.787Z,8.75
2022-10-20T04:59:37.515Z,9.02
2022-10-20T05:02:04.384Z,9.98
2022-10-20T05:04:31.782Z,9.00
2022-10-20T05:06:58.569Z,9.40
2022-10-20T05:09:25.319Z,9.77
2022-10-20T05:11:53.475Z,9.27
2022-10-20T05:14:20.464Z,9.50
2022-10-20T05:16:48.249Z,9.05
2022-10-20T05:19:15.024Z,9.48
2022-10-20T05:24:30.158Z,9.77
2022-10-20T05:26:56.988Z,9.60
2022-10-20T05:29:23.629Z,9.55
2022-10-20T05:31:51.611Z,9.32
2022-10-20T05:34:18.304Z,9.02
2022-10-20T05:36:45.292Z,10.75
2022-10-20T05:39:12.184Z,10.07
2022-10-20T05:41:39.326Z,9.32
2022-10-20T05:44:09.198Z,9.30
2022-10-20T05:46:41.826Z,9.77
2022-10-20T05:49:16.718Z,9.02
2022-10-20T05:51:47.456Z,9.60
2022-10-20T05:54:15.874Z,8.90
2022-10-20T05:56:43.217Z,9.55
2022-10-20T05:59:13.476Z,9.55
2022-10-20T06:01:49.897Z,9.27
2022-10-20T06:04:28.075Z,9.00
2022-10-20T06:06:56.137Z,8.70
2022-10-20T06:09:24.457Z,9.10
2022-10-20T06:11:52.506Z,9.43
2022-10-20T06:14:22.552Z,10.55
2022-10-20T06:16:53.627Z,9.73
2022-10-20T06:19:20.554Z,9.32
2022-10-20T06:21:48.943Z,8.73
2022-10-20T06:24:17.053Z,9.88
2022-10-20T06:26:45.916Z,9.40
2022-10-20T06:29:18.271Z,9.77
2022-10-20T06:31:47.642Z,9.80
2022-10-20T06:34:19.185Z,9.55
2022-10-20T06:36:46.696Z,9.80
2022-10-20T06:39:17.514Z,9.73
2022-10-20T06:41:48.541Z,10.25
2022-10-20T06:44:15.306Z,10.10
2022-10-20T06:46:45.403Z,10.60
2022-10-20T06:49:13.047Z,9.88
2022-10-20T06:51:39.885Z,10.23
2022-10-20T06:54:07.163Z,10.70
2022-10-20T06:56:35.770Z,9.35
2022-10-20T06:59:03.245Z,10.00
2022-10-20T07:01:35.084Z,9.32
2022-10-20T07:04:11.097Z,10.20
2022-10-20T07:06:40.352Z,10.00
2022-10-20T07:09:08.719Z,9.85
2022-10-20T07:11:37.101Z,9.82
2022-10-20T07:14:04.612Z,11.05
2022-10-20T07:16:34.437Z,9.98
2022-10-20T07:19:02.346Z,9.88
2022-10-20T07:21:35.742Z,10.35
2022-10-20T07:24:06.741Z,10.52
2022-10-20T07:26:36.462Z,10.40
2022-10-20T07:29:04.399Z,10.90
2022-10-20T07:31:39.786Z,10.77
2022-10-20T07:34:26.142Z,10.82
2022-10-20T07:36:54.106Z,10.55
2022-10-20T07:39:20.815Z,10.02
2022-10-20T07:41:48.398Z,10.93
2022-10-20T07:44:16.012Z,10.25
2022-10-20T07:46:42.808Z,9.98
2022-10-20T07:49:43.423Z,10.38
2022-10-20T07:51:56.984Z,10.68
2022-10-20T07:54:23.738Z,10.45
2022-10-20T07:56:50.637Z,10.45
2022-10-20T07:59:17.482Z,9.77
2022-10-20T08:01:44.556Z,9.98
2022-10-20T08:04:11.708Z,10.23
2022-10-20T08:06:39.411Z,9.82
2022-10-20T08:09:07.390Z,10.40
2022-10-20T08:11:34.856Z,10.25
2022-10-20T08:14:01.627Z,10.45
2022-10-20T08:21:50.490Z,10.55
2022-10-20T08:24:17.275Z,10.02
2022-10-20T08:26:44.255Z,10.68
2022-10-20T08:29:12.457Z,10.98
2022-10-20T08:31:44.679Z,10.65
2022-10-20T08:34:11.572Z,10.63
2022-10-20T08:36:38.570Z,10.00
2022-10-20T08:39:06.432Z,11.23
2022-10-20T08:42:06.276Z,10.85
2022-10-20T08:44:34.519Z,10.57
2022-10-20T08:47:14.231Z,11.10
2022-10-20T08:49:40.973Z,10.57
2022-10-20T08:52:15.066Z,12.00
2022-10-20T08:57:23.333Z,11.65
2022-10-20T08:59:59.030Z,10.82
2022-10-20T09:02:35.473Z,10.70
2022-10-20T09:05:02.578Z,12.50
2022-10-20T09:07:35.208Z,10.77
2022-10-20T09:10:14.627Z,11.10
2022-10-20T09:12:44.270Z,11.95
2022-10-20T09:15:13.048Z,11.68
2022-10-20T09:17:51.642Z,11.63
2022-10-20T09:20:58.845Z,11.43
2022-10-20T09:23:41.965Z,11.65
2022-10-20T09:26:24.959Z,11.70
2022-10-20T09:29:22.737Z,11.95
2022-10-20T09:31:54.891Z,11.25
2022-10-20T09:34:21.521Z,11.85
2022-10-20T09:36:50.063Z,11.95
2022-10-20T09:39:27.221Z,10.10
2022-10-20T09:42:03.791Z,11.35
2022-10-20T09:44:34.167Z,11.50
2022-10-20T09:47:02.769Z,11.77
2022-10-20T09:49:34.798Z,10.77
2022-10-20T09:52:04.302Z,11.70
2022-10-20T09:54:31.276Z,11.45
2022-10-20T09:57:06.930Z,11.80
2022-10-20T09:59:40.421Z,10.82
2022-10-20T10:02:16.266Z,11.50
2022-10-20T10:04:45.820Z,10.13
2022-10-20T10:07:27.823Z,11.75
2022-10-20T10:10:02.473Z,10.13
2022-10-20T10:12:33.048Z,12.00
2022-10-20T10:15:03.040Z,12.07
2022-10-20T10:17:39.485Z,12.00
2022-10-20T10:20:33.396Z,11.15
2022-10-20T10:23:22.804Z,11.13
2022-10-20T10:25:51.725Z,11.77
2022-10-20T10:28:38.952Z,11.00
2022-10-20T10:31:16.028Z,12.07
2022-10-20T10:33:42.858Z,11.82
2022-10-20T10:36:32.982Z,10.82
2022-10-20T10:39:00.099Z,12.77
2022-10-20T10:42:01.574Z,12.07
2022-10-20T10:45:03.881Z,11.45
2022-10-20T10:48:17.234Z,11.50
2022-10-20T10:50:54.685Z,11.80
2022-10-20T10:53:48.966Z,11.88
2022-10-20T10:56:45.197Z,11.77
2022-10-20T10:59:21.498Z,11.05
2022-10-20T11:01:57.447Z,11.98
2022-10-20T11:05:07.892Z,12.13
2022-10-20T11:07:43.489Z,10.77
2022-10-20T11:10:31.749Z,10.00
2022-10-20T11:13:26.010Z,11.48
2022-10-20T11:16:11.846Z,11.90
2022-10-20T11:19:13.158Z,9.40
2022-10-20T11:22:01.406Z,11.75
2022-10-20T11:24:40.056Z,10.93
2022-10-20T11:27:12.890Z,11.35
2022-10-20T11:29:48.084Z,12.18
2022-10-20T11:32:14.760Z,12.18
2022-10-20T11:35:02.191Z,12.05
2022-10-20T11:37:30.681Z,12.20
2022-10-20T11:40:15.474Z,11.57
2022-10-20T11:42:59.262Z,9.98
2022-10-20T11:45:55.954Z,12.10
2022-10-20T11:48:22.870Z,10.73
2022-10-20T11:51:01.593Z,12.05
2022-10-20T11:53:38.229Z,12.35
2022-10-20T11:56:30.190Z,11.80
2022-10-20T11:59:31.199Z,12.65
2022-10-20T12:02:36.257Z,12.27
2022-10-20T12:05:25.009Z,12.57
2022-10-20T12:08:30.738Z,12.38
2022-10-20T12:11:19.264Z,11.57
2022-10-20T12:14:02.888Z,12.43
2022-10-20T12:16:54.539Z,12.63
2022-10-20T12:19:30.281Z,12.63
2022-10-20T12:22:01.409Z,11.27
2022-10-20T12:24:34.039Z,11.80
2022-10-20T12:27:06.456Z,13.65
2022-10-20T12:29:33.132Z,13.13
2022-10-20T12:32:22.223Z,12.75
2022-10-20T12:35:23.778Z,13.60
2022-10-20T12:38:02.458Z,12.70
2022-10-20T12:40:41.002Z,12.88
2022-10-20T12:43:32.010Z,13.02
2022-10-20T12:46:05.010Z,12.57
2022-10-20T12:48:36.297Z,13.05
2022-10-20T12:51:08.814Z,12.57
2022-10-20T12:53:35.958Z,11.60
2022-10-20T12:56:09.861Z,12.10
2022-10-20T12:58:38.639Z,12.68
2022-10-20T13:01:07.604Z,12.07
2022-10-20T13:03:40.950Z,12.57
2022-10-20T13:06:23.097Z,11.98
2022-10-20T13:09:05.960Z,12.43
2022-10-20T13:11:38.760Z,12.48
2022-10-20T13:14:28.394Z,12.70
2022-10-20T13:17:19.086Z,13.55
2022-10-20T13:19:51.334Z,13.82
2022-10-20T13:22:35.781Z,13.30
2022-10-20T13:27:30.829Z,12.52
2022-10-20T13:29:59.754Z,13.68
2022-10-20T13:33:18.158Z,13.45
2022-10-20T13:35:54.745Z,13.18
2022-10-20T13:38:30.767Z,13.95
2022-10-20T13:41:16.587Z,12.85
2022-10-20T13:44:15.976Z,12.30
2022-10-20T13:46:51.865Z,12.15
2022-10-20T13:49:52.575Z,12.85
2022-10-20T13:52:21.542Z,13.50
2022-10-20T13:54:51.278Z,13.52
2022-10-20T13:57:36.332Z,12.75
2022-10-20T14:00:19.790Z,13.52
2022-10-20T14:02:57.584Z,13.45
2022-10-20T14:05:27.968Z,13.35
2022-10-20T14:07:56.082Z,12.40
2022-10-20T14:10:39.940Z,14.63
2022-10-20T14:13:14.396Z,13.13
2022-10-20T14:15:48.062Z,12.88
2022-10-20T14:18:27.793Z,12.38
2022-10-20T14:20:59.162Z,14.63
2022-10-20T14:23:28.278Z,13.75
2022-10-20T14:25:57.905Z,12.40
2022-10-20T14:28:33.269Z,13.40
2022-10-20T14:31:00.715Z,13.82
2022-10-20T14:33:30.274Z,14.10
2022-10-20T14:35:59.552Z,13.73
2022-10-20T14:38:35.453Z,14.77
2022-10-20T14:41:03.444Z,14.73
2022-10-20T14:44:00.721Z,15.35
2022-10-20T14:46:35.503Z,15.07
2022-10-20T14:49:03.162Z,14.13
2022-10-20T14:51:33.323Z,14.82
2022-10-20T14:54:15.324Z,16.15
2022-10-20T14:56:53.309Z,14.60
2022-10-20T14:59:29.163Z,14.10
2022-10-20T15:02:18.743Z,13.90
2022-10-20T15:04:47.309Z,14.43
2022-10-20T15:07:28.170Z,14.35
2022-10-20T15:10:00.300Z,13.70
2022-10-20T15:12:47.756Z,14.90
2022-10-20T15:15:21.884Z,14.50
2022-10-20T15:20:34.031Z,13.65
2022-10-20T15:23:04.720Z,14.68
2022-10-20T15:25:38.689Z,13.75
2022-10-20T15:28:06.868Z,14.50
2022-10-20T15:30:35.446Z,14.48
2022-10-20T15:33:05.393Z,14.13
2022-10-20T15:35:35.245Z,14.77
2022-10-20T15:38:03.218Z,14.32
2022-10-20T15:40:31.559Z,14.20
2022-10-20T15:42:58.249Z,14.52
2022-10-20T15:45:25.577Z,13.27
2022-10-20T15:47:53.517Z,14.65
2022-10-20T15:50:22.942Z,14.50
2022-10-20T15:52:54.259Z,15.23
2022-10-20T15:55:27.661Z,14.90
2022-10-20T15:57:55.426Z,13.88
2022-10-20T16:00:24.798Z,14.77
2022-10-20T16:02:52.168Z,13.77
2022-10-20T16:05:23.217Z,14.27
2022-10-20T16:07:53.117Z,15.52
2022-10-20T16:10:22.034Z,16.92
2022-10-20T16:12:49.302Z,15.23
2022-10-20T16:15:16.692Z,15.70
2022-10-20T16:17:45.126Z,16.08
2022-10-20T16:20:14.259Z,16.10
2022-10-20T16:22:41.252Z,16.27
2022-10-20T16:25:09.855Z,16.10
2022-10-20T16:27:36.954Z,15.95
2022-10-20T16:30:05.646Z,16.80
2022-10-20T16:32:35.373Z,15.55
2022-10-20T16:35:06.347Z,15.20
2022-10-20T16:37:33.812Z,16.35
2022-10-20T16:40:00.707Z,15.75
2022-10-20T16:42:30.390Z,15.88
2022-10-20T16:44:57.740Z,15.25
2022-10-20T16:47:28.441Z,15.30
2022-10-20T16:49:55.204Z,16.65
2022-10-20T16:52:22.956Z,15.93
2022-10-20T16:54:49.704Z,15.52
2022-10-20T16:57:16.470Z,15.10
2022-10-20T16:59:45.567Z,15.75
2022-10-20T17:02:13.247Z,15.55
2022-10-20T17:04:41.009Z,15.43
2022-10-20T17:07:08.818Z,14.52
2022-10-20T17:09:35.653Z,16.38
2022-10-20T17:12:03.646Z,15.85
2022-10-20T17:14:30.624Z,16.88
2022-10-20T17:16:57.492Z,15.85
2022-10-20T17:19:24.145Z,16.95
2022-10-20T17:21:55.827Z,15.48
2022-10-20T17:24:24.371Z,16.38
2022-10-20T17:26:51.086Z,15.95
2022-10-20T17:29:21.037Z,16.67
2022-10-20T17:31:50.544Z,16.98
2022-10-20T17:34:18.945Z,17.10
2022-10-20T17:36:45.677Z,16.90
2022-10-20T17:39:16.702Z,17.67
2022-10-20T17:41:43.739Z,18.02
2022-10-20T17:44:10.575Z,17.50
2022-10-20T17:46:38.567Z,17.55
2022-10-20T17:49:06.686Z,14.18
2022-10-20T17:51:35.001Z,16.50
2022-10-20T17:54:02.928Z,15.50
2022-10-20T17:56:36.235Z,15.80
2022-10-20T17:59:05.401Z,16.80
2022-10-20T18:01:34.755Z,17.02
2022-10-20T18:04:02.783Z,17.45
2022-10-20T18:06:34.022Z,15.68
2022-10-20T18:09:04.881Z,15.52
2022-10-20T18:11:34.026Z,15.88
2022-10-20T18:14:01.252Z,15.45
2022-10-20T18:16:30.339Z,16.58
2022-10-20T18:21:45.016Z,16.00
2022-10-20T18:24:13.931Z,16.45
2022-10-20T18:26:40.702Z,15.85
2022-10-20T18:29:09.246Z,15.52
2022-10-20T18:31:38.175Z,15.50
2022-10-20T18:34:15.526Z,15.95
2022-10-20T18:36:45.945Z,15.00
2022-10-20T18:39:14.734Z,15.48
2022-10-20T18:41:44.102Z,15.73
2022-10-20T18:44:14.071Z,15.32
2022-10-20T18:46:41.518Z,17.05
2022-10-20T18:49:11.624Z,16.02
2022-10-20T18:51:46.182Z,15.70
2022-10-20T18:54:13.314Z,16.20
2022-10-20T18:56:40.548Z,15.77
2022-10-20T18:59:16.579Z,16.67
2022-10-20T19:01:44.770Z,16.27
2022-10-20T19:04:13.077Z,15.65
2022-10-20T19:06:42.433Z,15.60
2022-10-20T19:09:12.869Z,16.77
2022-10-20T19:11:40.403Z,16.42
2022-10-20T19:14:11.791Z,16.63
2022-10-20T19:16:41.636Z,17.58
2022-10-20T19:20:15.890Z,16.75
2022-10-20T19:22:43.967Z,16.65
2022-10-20T19:25:10.778Z,18.05
2022-10-20T19:27:37.538Z,18.50
2022-10-20T20:27:11.154Z,18.90
2022-10-20T20:29:38.312Z,18.55
2022-10-20T20:32:05.831Z,18.70
2022-10-20T20:34:32.819Z,17.38
2022-10-20T20:37:00.557Z,17.58
2022-10-20T20:39:27.212Z,17.60
2022-10-20T20:41:53.979Z,17.60
2022-10-20T20:44:20.759Z,18.05
2022-10-20T20:46:47.445Z,16.75
2022-10-20T20:49:15.042Z,17.33
2022-10-20T20:51:41.755Z,18.60
2022-10-20T20:54:10.304Z,17.40
2022-10-20T20:56:37.169Z,19.05
2022-10-20T20:59:05.066Z,17.13
2022-10-20T21:01:32.241Z,17.42
2022-10-20T21:04:02.197Z,17.48
2022-10-20T21:06:33.967Z,17.63
2022-10-20T21:09:11.488Z,17.88
2022-10-20T21:11:38.376Z,17.95
2022-10-20T21:14:05.205Z,17.60
2022-10-20T21:16:34.449Z,18.33
2022-10-20T21:19:07.999Z,18.63
2022-10-20T21:21:40.030Z,16.27
2022-10-20T21:24:06.840Z,17.80
2022-10-20T21:26:33.749Z,19.13
2022-10-20T21:29:03.882Z,17.60
2022-10-20T21:31:31.436Z,17.85
2022-10-20T21:34:00.734Z,17.05
2022-10-20T21:36:29.393Z,17.45
2022-10-20T21:38:56.258Z,17.85
2022-10-20T21:41:25.390Z,17.55
2022-10-20T21:43:54.318Z,19.08
2022-10-20T21:46:22.684Z,17.27
2022-10-20T21:48:51.686Z,17.70
2022-10-20T21:51:28.037Z,18.58
2022-10-20T21:53:59.379Z,17.25
2022-10-20T21:56:26.256Z,18.83
2022-10-20T21:58:54.826Z,18.73
2022-10-20T22:01:24.586Z,16.92
2022-10-20T22:03:52.791Z,18.23
2022-10-20T22:06:21.877Z,16.75
2022-10-20T22:08:53.109Z,16.92
2022-10-20T22:11:25.659Z,16.58
2022-10-20T22:13:52.734Z,16.02
2022-10-20T22:16:22.545Z,16.05
2022-10-20T22:18:53.604Z,16.85
2022-10-20T22:21:20.291Z,15.90
2022-10-20T22:23:47.583Z,15.52
2022-10-20T22:26:15.611Z,16.55
2022-10-20T22:28:42.636Z,15.43
2022-10-20T22:31:11.717Z,14.95
2022-10-20T22:33:41.987Z,15.18
2022-10-20T22:36:08.915Z,13.60
2022-10-20T22:38:35.625Z,15.27
2022-10-20T22:41:03.633Z,14.63
2022-10-20T22:43:31.344Z,13.13
2022-10-20T22:45:58.419Z,13.68
2022-10-20T22:48:25.492Z,13.73
2022-10-20T22:50:52.307Z,12.20
2022-10-20T22:53:19.714Z,11.90
2022-10-20T22:55:47.228Z,10.85
2022-10-20T22:58:14.090Z,10.70
2022-10-20T23:00:42.258Z,11.13
2022-10-20T23:03:09.182Z,11.88
2022-10-20T23:05:36.679Z,11.40
2022-10-20T23:08:03.560Z,12.15
2022-10-20T23:10:31.288Z,11.90
2022-10-20T23:12:58.027Z,12.95
2022-10-20T23:15:24.785Z,12.07
2022-10-20T23:17:51.567Z,8.27
2022-10-20T23:20:19.161Z,5.78
2022-10-20T23:22:48.295Z,4.53
2022-10-20T23:25:16.569Z,5.25
2022-10-20T23:27:43.287Z,5.22
2022-10-20T23:30:11.307Z,5.35
2022-10-20T23:32:38.163Z,5.68
2022-10-20T23:35:05.293Z,4.80
2022-10-20T23:37:32.151Z,4.88
2022-10-20T23:40:00.308Z,4.97
2022-10-20T23:42:28.258Z,5.15
2022-10-20T23:44:54.931Z,4.82
2022-10-20T23:47:21.618Z,4.97
2022-10-20T23:49:48.860Z,4.70
2022-10-20T23:52:16.315Z,4.22
2022-10-20T23:54:43.009Z,4.97
2022-10-20T23:57:09.714Z,7.00
2022-10-20T23:59:36.353Z,6.30
